Time;durP1;ratioP1;P1;durP2;ratioP2;P2;SDS_P1;SDS_P2;PMS_P1;PMS_P2;Temp;Humidity;BMP_temperature;BMP_pressure;BME280_temperature;BME280_humidity;BME280_pressure;Samples;Min_cycle;Max_cycle;Signal;HPM_P1;HPM_P2
2023/11/17 00:00:48;;;;;;;1.70;1.70;;;;;;;;;;6254415;28;20529;-70
2023/11/17 00:03:52;;;;;;;1.87;1.77;;;;;;;;;;6263211;28;20299;-70
2023/11/17 00:06:56;;;;;;;3.33;2.10;;;;;;;;;;6256303;28;20464;-72
2023/11/17 00:10:03;;;;;;;2.13;2.13;;;;;;;;;;6255816;28;20593;-72
2023/11/17 00:13:07;;;;;;;2.03;1.93;;;;;;;;;;6244143;28;20323;-72
2023/11/17 00:16:11;;;;;;;1.93;1.93;;;;;;;;;;6256707;28;20495;-74
2023/11/17 00:19:15;;;;;;;2.00;1.90;;;;;;;;;;6255851;28;20588;-72
2023/11/17 00:22:20;;;;;;;2.10;1.87;;;;;;;;;;6254526;28;20331;-71
2023/11/17 00:25:27;;;;;;;2.10;2.00;;;;;;;;;;6255210;28;20498;-71
2023/11/17 00:28:39;;;;;;;1.80;1.80;;;;;;;;;;6255221;28;20624;-72
2023/11/17 00:31:43;;;;;;;2.20;2.10;;;;;;;;;;6255632;28;20303;-70
2023/11/17 00:34:47;;;;;;;2.00;1.90;;;;;;;;;;6261244;28;20302;-70
2023/11/17 00:37:51;;;;;;;2.03;1.93;;;;;;;;;;6254936;28;20566;-71
2023/11/17 00:40:58;;;;;;;2.40;2.30;;;;;;;;;;6255441;28;20309;-71
2023/11/17 00:44:02;;;;;;;2.50;1.80;;;;;;;;;;6254795;28;20328;-71
2023/11/17 00:47:06;;;;;;;2.13;2.03;;;;;;;;;;6270226;28;20292;-71
2023/11/17 00:50:11;;;;;;;1.97;1.87;;;;;;;;;;6254571;28;20295;-70
2023/11/17 00:53:22;;;;;;;1.80;1.80;;;;;;;;;;6254720;28;20295;-71
2023/11/17 00:56:27;;;;;;;2.10;2.10;;;;;;;;;;6253569;28;20401;-71
2023/11/17 00:59:31;;;;;;;2.03;1.90;;;;;;;;;;6253304;28;20322;-72
2023/11/17 01:02:35;;;;;;;2.33;2.13;;;;;;;;;;6269596;28;20296;-72
2023/11/17 01:05:39;;;;;;;2.70;2.00;;;;;;;;;;6243800;28;20297;-71
2023/11/17 01:08:42;;;;;;;1.70;1.70;;;;;;;;;;6252946;28;20615;-73
2023/11/17 01:11:47;;;;;;;1.90;1.90;;;;;;;;;;6253530;28;20597;-72
2023/11/17 01:14:51;;;;;;;1.87;1.87;;;;;;;;;;6254293;28;20318;-70
2023/11/17 01:17:55;;;;;;;2.00;2.00;;;;;;;;;;6254758;28;20295;-71
2023/11/17 01:20:59;;;;;;;2.03;2.03;;;;;;;;;;6252878;28;20286;-70
2023/11/17 01:24:04;;;;;;;2.13;2.03;;;;;;;;;;6269187;28;20604;-71
2023/11/17 01:27:09;;;;;;;2.10;2.10;;;;;;;;;;6254428;28;20295;-70
2023/11/17 01:30:14;;;;;;;2.27;2.17;;;;;;;;;;6227208;28;20293;-72
2023/11/17 01:33:18;;;;;;;2.13;2.03;;;;;;;;;;6253775;28;20641;-71
2023/11/17 01:36:22;;;;;;;2.00;1.90;;;;;;;;;;6254188;28;20291;-71
2023/11/17 01:39:26;;;;;;;1.77;1.67;;;;;;;;;;6269876;28;20616;-72
2023/11/17 01:42:33;;;;;;;1.90;1.90;;;;;;;;;;6253097;28;20324;-70
2023/11/17 01:45:37;;;;;;;1.87;1.87;;;;;;;;;;6269410;28;20239;-70
2023/11/17 01:48:41;;;;;;;2.10;2.00;;;;;;;;;;6253698;28;20313;-70
2023/11/17 01:51:46;;;;;;;1.90;1.90;;;;;;;;;;6258773;28;20292;-71
2023/11/17 01:54:51;;;;;;;2.27;2.13;;;;;;;;;;6257046;28;20296;-71
2023/11/17 01:57:56;;;;;;;2.10;2.00;;;;;;;;;;6256927;28;20321;-71
2023/11/17 02:01:03;;;;;;;2.10;2.10;;;;;;;;;;6274399;28;20377;-71
2023/11/17 02:04:08;;;;;;;2.23;2.00;;;;;;;;;;6273304;28;20498;-70
2023/11/17 02:07:16;;;;;;;1.77;1.77;;;;;;;;;;6257944;28;20441;-70
2023/11/17 02:10:29;;;;;;;1.97;1.87;;;;;;;;;;6258931;28;20303;-71
2023/11/17 02:13:38;;;;;;;1.63;1.63;;;;;;;;;;6258895;28;20480;-74
2023/11/17 02:16:43;;;;;;;1.83;1.83;;;;;;;;;;6249477;28;20293;-71
2023/11/17 02:19:48;;;;;;;2.17;2.07;;;;;;;;;;6255074;28;20585;-70
2023/11/17 02:22:54;;;;;;;1.93;1.93;;;;;;;;;;6257143;28;20309;-73
2023/11/17 02:26:15;;;;;;;2.00;1.90;;;;;;;;;;6247729;28;20232;-73
2023/11/17 02:29:37;;;;;;;1.57;1.57;;;;;;;;;;6255904;28;20360;-70
2023/11/17 02:32:41;;;;;;;1.73;1.73;;;;;;;;;;6254492;28;20316;-71
2023/11/17 02:35:45;;;;;;;1.57;1.57;;;;;;;;;;6254523;28;20312;-71
2023/11/17 02:38:56;;;;;;;1.80;1.80;;;;;;;;;;6256367;28;20628;-72
2023/11/17 02:42:00;;;;;;;1.80;1.80;;;;;;;;;;6256675;28;20625;-72
2023/11/17 02:45:10;;;;;;;2.30;1.70;;;;;;;;;;6257851;28;20291;-73
2023/11/17 02:48:21;;;;;;;2.23;1.70;;;;;;;;;;6255946;28;20303;-72
2023/11/17 02:51:43;;;;;;;2.13;1.90;;;;;;;;;;6256993;28;20316;-72
2023/11/17 02:54:48;;;;;;;1.80;1.70;;;;;;;;;;6246147;28;20444;-73
2023/11/17 02:57:54;;;;;;;1.63;1.63;;;;;;;;;;6255982;28;20397;-72
2023/11/17 03:01:01;;;;;;;1.80;1.60;;;;;;;;;;6255947;28;20310;-73
2023/11/17 03:04:12;;;;;;;1.80;1.80;;;;;;;;;;6256681;28;20309;-71
2023/11/17 03:07:16;;;;;;;1.63;1.63;;;;;;;;;;6256156;28;20303;-71
2023/11/17 03:10:21;;;;;;;1.50;1.50;;;;;;;;;;6257380;28;20293;-71
2023/11/17 03:13:25;;;;;;;1.70;1.70;;;;;;;;;;6256956;28;20303;-71
2023/11/17 03:16:30;;;;;;;1.80;1.80;;;;;;;;;;6256320;28;20294;-73
2023/11/17 03:19:36;;;;;;;1.70;1.70;;;;;;;;;;6234076;28;20289;-72
2023/11/17 03:22:40;;;;;;;1.60;1.50;;;;;;;;;;6262765;28;20300;-72
2023/11/17 03:25:44;;;;;;;1.70;1.70;;;;;;;;;;6272098;28;20285;-72
2023/11/17 03:28:49;;;;;;;1.57;1.57;;;;;;;;;;6226349;28;20236;-73
2023/11/17 03:31:54;;;;;;;1.77;1.77;;;;;;;;;;6265577;28;20487;-70
2023/11/17 03:34:58;;;;;;;1.50;1.50;;;;;;;;;;6254824;28;20609;-71
2023/11/17 03:38:02;;;;;;;1.63;1.63;;;;;;;;;;6272357;28;20297;-71
2023/11/17 03:41:07;;;;;;;2.00;1.57;;;;;;;;;;6256955;28;20293;-71
2023/11/17 03:44:11;;;;;;;1.50;1.50;;;;;;;;;;6256281;28;20308;-71
2023/11/17 03:47:16;;;;;;;1.70;1.60;;;;;;;;;;6271407;28;20296;-71
2023/11/17 03:50:20;;;;;;;1.77;1.77;;;;;;;;;;6243866;28;20502;-72
2023/11/17 03:53:24;;;;;;;1.90;1.80;;;;;;;;;;6245593;28;20313;-72
2023/11/17 03:56:28;;;;;;;1.50;1.50;;;;;;;;;;6256414;28;20315;-70
2023/11/17 03:59:32;;;;;;;1.60;1.60;;;;;;;;;;6253538;28;20674;-70
2023/11/17 04:02:38;;;;;;;1.50;1.50;;;;;;;;;;6254847;28;20512;-73
2023/11/17 04:05:41;;;;;;;1.50;1.50;;;;;;;;;;6253831;28;20333;-71
2023/11/17 04:08:45;;;;;;;2.30;1.63;;;;;;;;;;6253837;28;20238;-71
2023/11/17 04:11:50;;;;;;;1.37;1.30;;;;;;;;;;6256302;28;20308;-70
2023/11/17 04:14:54;;;;;;;1.40;1.40;;;;;;;;;;6253398;28;20602;-71
2023/11/17 04:17:59;;;;;;;1.40;1.40;;;;;;;;;;6255363;28;20305;-74
2023/11/17 04:21:05;;;;;;;1.30;1.30;;;;;;;;;;6255615;28;20321;-71
2023/11/17 04:24:09;;;;;;;1.37;1.37;;;;;;;;;;6270280;28;20286;-70
2023/11/17 04:27:13;;;;;;;1.50;1.50;;;;;;;;;;6253649;28;20549;-71
2023/11/17 04:30:17;;;;;;;1.40;1.40;;;;;;;;;;6262234;28;20311;-71
2023/11/17 04:33:22;;;;;;;1.40;1.40;;;;;;;;;;6254931;28;20308;-71
2023/11/17 04:36:26;;;;;;;1.40;1.40;;;;;;;;;;6254988;28;20289;-72
2023/11/17 04:39:31;;;;;;;1.50;1.50;;;;;;;;;;6255399;28;20290;-71
2023/11/17 04:42:35;;;;;;;1.60;1.50;;;;;;;;;;6255912;28;20302;-74
2023/11/17 04:45:43;;;;;;;1.40;1.40;;;;;;;;;;6253320;28;20253;-72
2023/11/17 04:48:49;;;;;;;1.53;1.53;;;;;;;;;;6255122;28;20331;-72
2023/11/17 04:51:53;;;;;;;1.50;1.50;;;;;;;;;;6255219;28;20533;-73
2023/11/17 04:54:56;;;;;;;1.63;1.53;;;;;;;;;;6252704;28;20297;-71
2023/11/17 04:58:00;;;;;;;1.50;1.47;;;;;;;;;;6261086;28;20616;-70
2023/11/17 05:01:06;;;;;;;1.80;1.30;;;;;;;;;;6255505;28;20609;-71
2023/11/17 05:04:13;;;;;;;1.30;1.30;;;;;;;;;;6254268;28;20329;-71
2023/11/17 05:07:17;;;;;;;2.23;1.70;;;;;;;;;;6254935;28;20297;-71
2023/11/17 05:10:21;;;;;;;1.50;1.50;;;;;;;;;;6254243;28;20317;-72
2023/11/17 05:13:25;;;;;;;1.50;1.40;;;;;;;;;;6254745;28;20297;-70
2023/11/17 05:16:31;;;;;;;2.30;1.53;;;;;;;;;;6254787;28;20297;-70
2023/11/17 05:19:37;;;;;;;1.60;1.60;;;;;;;;;;6254292;28;20304;-70
2023/11/17 05:22:41;;;;;;;1.67;1.67;;;;;;;;;;6254837;28;20314;-70
2023/11/17 05:25:45;;;;;;;1.50;1.40;;;;;;;;;;6256606;28;20316;-70
2023/11/17 05:28:49;;;;;;;1.60;1.60;;;;;;;;;;6259506;28;20312;-71
2023/11/17 05:31:52;;;;;;;1.70;1.67;;;;;;;;;;6259308;28;20610;-70
2023/11/17 05:34:58;;;;;;;1.90;1.80;;;;;;;;;;6257786;28;20296;-70
2023/11/17 05:38:01;;;;;;;2.00;1.83;;;;;;;;;;6259011;28;20302;-71
2023/11/17 05:41:05;;;;;;;1.97;1.90;;;;;;;;;;6260171;28;20294;-70
2023/11/17 05:44:09;;;;;;;1.77;1.70;;;;;;;;;;6265331;28;20307;-69
2023/11/17 05:47:13;;;;;;;2.33;1.90;;;;;;;;;;6259414;28;20293;-70
2023/11/17 05:50:18;;;;;;;1.90;1.90;;;;;;;;;;6258366;28;20306;-70
2023/11/17 05:53:22;;;;;;;4.60;1.90;;;;;;;;;;6258683;28;20328;-71
2023/11/17 05:56:26;;;;;;;2.67;2.00;;;;;;;;;;6259129;28;20298;-71
2023/11/17 05:59:30;;;;;;;1.63;1.63;;;;;;;;;;6256689;28;20485;-70
2023/11/17 06:02:33;;;;;;;1.70;1.70;;;;;;;;;;6258506;28;20298;-70
2023/11/17 06:05:39;;;;;;;3.40;2.00;;;;;;;;;;6258293;28;20298;-71
2023/11/17 06:08:42;;;;;;;2.10;2.00;;;;;;;;;;6258546;28;20307;-70
2023/11/17 06:11:46;;;;;;;2.00;2.00;;;;;;;;;;6274085;28;20297;-71
2023/11/17 06:14:50;;;;;;;1.70;1.70;;;;;;;;;;6256177;28;20595;-71
2023/11/17 06:17:54;;;;;;;2.10;2.10;;;;;;;;;;6234777;28;20354;-71
2023/11/17 06:20:59;;;;;;;1.90;1.90;;;;;;;;;;6256766;28;20714;-71
2023/11/17 06:24:03;;;;;;;2.07;2.03;;;;;;;;;;6242624;28;20344;-71
2023/11/17 06:27:11;;;;;;;2.03;1.93;;;;;;;;;;6254733;28;20302;-70
2023/11/17 06:30:15;;;;;;;2.40;2.20;;;;;;;;;;6256670;28;20295;-72
2023/11/17 06:33:19;;;;;;;2.03;1.90;;;;;;;;;;6257923;28;20307;-70
2023/11/17 06:36:24;;;;;;;2.50;2.03;;;;;;;;;;6257846;28;20518;-70
2023/11/17 06:39:29;;;;;;;2.03;2.03;;;;;;;;;;6257694;28;20301;-72
2023/11/17 06:42:33;;;;;;;2.57;2.37;;;;;;;;;;6257985;28;20297;-72
2023/11/17 06:45:37;;;;;;;2.30;2.30;;;;;;;;;;6257948;28;20301;-73
2023/11/17 06:48:41;;;;;;;2.03;1.93;;;;;;;;;;6257754;28;20309;-70
2023/11/17 06:51:48;;;;;;;2.27;2.17;;;;;;;;;;6257663;28;20318;-70
2023/11/17 06:54:51;;;;;;;2.07;1.97;;;;;;;;;;6257529;28;20319;-73
2023/11/17 06:57:55;;;;;;;2.50;2.30;;;;;;;;;;6256072;28;20315;-72
2023/11/17 07:00:59;;;;;;;2.33;2.13;;;;;;;;;;6257438;28;20294;-71
2023/11/17 07:04:05;;;;;;;2.60;2.40;;;;;;;;;;6255807;28;20451;-71
2023/11/17 07:07:10;;;;;;;2.50;2.30;;;;;;;;;;6258315;28;20299;-70
2023/11/17 07:10:15;;;;;;;2.70;2.60;;;;;;;;;;6260487;28;20271;-73
2023/11/17 07:13:19;;;;;;;2.87;2.27;;;;;;;;;;6259430;28;20497;-74
2023/11/17 07:16:24;;;;;;;2.80;2.60;;;;;;;;;;6258072;28;20617;-74
2023/11/17 07:19:45;;;;;;;2.53;2.33;;;;;;;;;;6257110;28;20302;-74
2023/11/17 07:22:50;;;;;;;2.47;2.27;;;;;;;;;;6257916;28;20379;-72
2023/11/17 07:25:55;;;;;;;2.40;2.30;;;;;;;;;;6256985;28;20301;-73
2023/11/17 07:28:59;;;;;;;2.43;2.40;;;;;;;;;;6256593;28;20302;-72
2023/11/17 07:32:04;;;;;;;2.57;2.37;;;;;;;;;;6256948;28;20596;-72
2023/11/17 07:35:09;;;;;;;2.43;2.30;;;;;;;;;;6256282;28;20302;-72
2023/11/17 07:38:14;;;;;;;2.40;2.30;;;;;;;;;;6256630;28;20386;-72
2023/11/17 07:41:18;;;;;;;2.30;2.20;;;;;;;;;;6257119;28;20294;-72
2023/11/17 07:44:22;;;;;;;2.33;2.30;;;;;;;;;;6256591;28;20291;-73
2023/11/17 07:47:26;;;;;;;2.30;2.20;;;;;;;;;;6255884;28;20318;-72
2023/11/17 07:50:30;;;;;;;2.70;2.60;;;;;;;;;;6256056;28;20580;-72
2023/11/17 07:53:35;;;;;;;2.13;2.10;;;;;;;;;;6253471;28;20290;-72
2023/11/17 07:56:40;;;;;;;2.40;2.30;;;;;;;;;;6256343;28;20285;-72
2023/11/17 07:59:44;;;;;;;2.23;2.13;;;;;;;;;;6254225;28;20610;-70
2023/11/17 08:02:47;;;;;;;2.33;2.20;;;;;;;;;;6255643;28;20301;-71
2023/11/17 08:05:51;;;;;;;2.73;2.43;;;;;;;;;;6256361;28;20293;-71
2023/11/17 08:08:56;;;;;;;2.63;2.47;;;;;;;;;;6256079;28;20645;-70
2023/11/17 08:12:00;;;;;;;2.40;2.30;;;;;;;;;;6256181;28;20295;-73
2023/11/17 08:15:06;;;;;;;2.73;2.53;;;;;;;;;;6255221;28;20354;-71
2023/11/17 08:18:09;;;;;;;2.40;2.30;;;;;;;;;;6255539;28;20306;-73
2023/11/17 08:21:13;;;;;;;2.50;2.40;;;;;;;;;;6254848;28;20297;-70
2023/11/17 08:24:20;;;;;;;2.53;2.43;;;;;;;;;;6254947;28;20302;-71
2023/11/17 08:27:24;;;;;;;4.17;2.50;;;;;;;;;;6255334;28;20330;-73
2023/11/17 08:30:28;;;;;;;2.80;2.70;;;;;;;;;;6255098;28;20318;-71
2023/11/17 08:33:45;;;;;;;2.63;2.53;;;;;;;;;;6255409;28;20295;-72
2023/11/17 08:36:49;;;;;;;2.43;2.43;;;;;;;;;;6255638;28;20299;-71
2023/11/17 08:39:54;;;;;;;3.37;2.43;;;;;;;;;;6254583;28;20310;-71
2023/11/17 08:42:58;;;;;;;2.50;2.40;;;;;;;;;;6255238;28;20322;-72
2023/11/17 08:46:02;;;;;;;2.53;2.40;;;;;;;;;;6269613;28;20415;-70
2023/11/17 08:49:07;;;;;;;2.70;2.50;;;;;;;;;;6254302;28;20302;-71
2023/11/17 08:52:12;;;;;;;2.53;2.33;;;;;;;;;;6253692;28;20232;-71
2023/11/17 08:55:18;;;;;;;2.77;2.57;;;;;;;;;;6254260;28;20303;-73
2023/11/17 08:58:22;;;;;;;2.53;2.30;;;;;;;;;;6252383;28;20319;-72
2023/11/17 09:01:25;;;;;;;2.70;2.60;;;;;;;;;;6255362;28;20299;-72
2023/11/17 09:04:29;;;;;;;2.63;2.43;;;;;;;;;;6253927;28;20295;-71
2023/11/17 09:07:33;;;;;;;3.03;2.70;;;;;;;;;;6255188;28;20299;-72
2023/11/17 09:10:40;;;;;;;2.53;2.40;;;;;;;;;;6254711;28;20583;-71
2023/11/17 09:13:44;;;;;;;3.00;2.73;;;;;;;;;;6254421;28;20488;-71
2023/11/17 09:16:47;;;;;;;2.67;2.50;;;;;;;;;;6254321;28;20312;-72
2023/11/17 09:19:53;;;;;;;3.10;2.43;;;;;;;;;;6254186;28;20302;-69
2023/11/17 09:22:59;;;;;;;4.03;2.20;;;;;;;;;;6253923;28;20350;-71
2023/11/17 09:26:07;;;;;;;2.73;2.13;;;;;;;;;;6254345;28;20298;-71
2023/11/17 09:29:11;;;;;;;2.47;2.27;;;;;;;;;;6253684;28;20303;-71
2023/11/17 09:32:16;;;;;;;2.20;1.90;;;;;;;;;;6254428;28;20327;-71
2023/11/17 09:35:21;;;;;;;2.87;2.07;;;;;;;;;;6253704;28;20283;-69
2023/11/17 09:38:25;;;;;;;3.00;2.33;;;;;;;;;;6253634;28;20302;-71
2023/11/17 09:41:41;;;;;;;1.70;1.70;;;;;;;;;;6253789;28;20294;-72
2023/11/17 09:44:46;;;;;;;4.37;1.90;;;;;;;;;;6253892;28;20307;-70
2023/11/17 09:47:53;;;;;;;2.97;1.90;;;;;;;;;;6254191;28;20524;-70
2023/11/17 09:51:02;;;;;;;1.47;1.47;;;;;;;;;;6253312;28;20338;-73
2023/11/17 09:54:07;;;;;;;1.60;1.60;;;;;;;;;;6254376;28;20291;-73
2023/11/17 09:57:12;;;;;;;2.23;1.80;;;;;;;;;;6254568;28;20304;-71
2023/11/17 10:00:20;;;;;;;4.80;1.80;;;;;;;;;;6251749;28;20303;-70
2023/11/17 10:03:28;;;;;;;7.53;2.00;;;;;;;;;;6253320;28;20600;-72
2023/11/17 10:06:33;;;;;;;3.60;1.87;;;;;;;;;;6254236;28;20323;-70
2023/11/17 10:09:38;;;;;;;11.70;2.53;;;;;;;;;;6253560;28;20313;-71
2023/11/17 10:12:46;;;;;;;3.70;1.80;;;;;;;;;;6257562;28;20296;-71
2023/11/17 10:15:51;;;;;;;3.27;2.10;;;;;;;;;;6254950;28;20319;-70
2023/11/17 10:18:59;;;;;;;4.30;2.10;;;;;;;;;;6257691;28;20308;-72
2023/11/17 10:22:03;;;;;;;3.20;1.97;;;;;;;;;;6255064;28;20599;-69
2023/11/17 10:25:10;;;;;;;5.37;2.07;;;;;;;;;;6265428;28;20303;-72
2023/11/17 10:28:17;;;;;;;1.60;1.60;;;;;;;;;;6257519;28;20310;-72
2023/11/17 10:31:21;;;;;;;1.87;1.77;;;;;;;;;;6258538;28;20493;-70
2023/11/17 10:34:26;;;;;;;3.90;1.90;;;;;;;;;;6255977;28;20319;-71
2023/11/17 10:37:34;;;;;;;1.53;1.53;;;;;;;;;;6257924;28;20474;-70
2023/11/17 10:40:38;;;;;;;1.80;1.80;;;;;;;;;;6257682;28;20288;-72
2023/11/17 10:43:51;;;;;;;2.20;2.00;;;;;;;;;;6257484;28;20299;-71
2023/11/17 10:46:56;;;;;;;6.00;1.80;;;;;;;;;;6257890;28;20308;-71
2023/11/17 10:50:07;;;;;;;5.50;1.97;;;;;;;;;;6257531;28;20313;-71
2023/11/17 10:53:19;;;;;;;4.03;1.70;;;;;;;;;;6257282;28;20306;-71
2023/11/17 10:56:27;;;;;;;1.40;1.40;;;;;;;;;;6257885;28;20296;-73
2023/11/17 10:59:35;;;;;;;1.57;1.47;;;;;;;;;;6255555;28;20295;-72
2023/11/17 11:02:55;;;;;;;2.77;1.60;;;;;;;;;;6257489;28;20331;-71
2023/11/17 11:05:59;;;;;;;2.93;1.80;;;;;;;;;;6255331;28;20497;-71
2023/11/17 11:09:05;;;;;;;5.50;1.67;;;;;;;;;;6256219;28;20602;-71
2023/11/17 11:12:14;;;;;;;1.80;1.80;;;;;;;;;;6257027;28;20307;-72
2023/11/17 11:15:20;;;;;;;1.83;1.80;;;;;;;;;;6256563;28;20318;-70
2023/11/17 11:18:23;;;;;;;1.93;1.70;;;;;;;;;;6256839;28;20286;-71
2023/11/17 11:21:29;;;;;;;1.73;1.63;;;;;;;;;;6257418;28;20295;-72
2023/11/17 11:24:35;;;;;;;6.73;1.87;;;;;;;;;;6257085;28;20307;-72
2023/11/17 11:27:43;;;;;;;1.80;1.70;;;;;;;;;;6252655;28;20308;-72
2023/11/17 11:30:50;;;;;;;2.67;1.60;;;;;;;;;;6256703;28;20296;-71
2023/11/17 11:33:55;;;;;;;2.30;1.57;;;;;;;;;;6255324;28;20359;-71
2023/11/17 11:36:59;;;;;;;2.20;2.10;;;;;;;;;;6256772;28;20299;-73
2023/11/17 11:40:04;;;;;;;6.93;1.90;;;;;;;;;;6255834;28;20379;-72
2023/11/17 11:43:07;;;;;;;6.57;2.80;;;;;;;;;;6256075;28;20478;-73
2023/11/17 11:46:16;;;;;;;2.37;2.27;;;;;;;;;;6256019;28;20295;-70
2023/11/17 11:49:20;;;;;;;7.18;2.58;;;;;;;;;;6254436;28;20474;-72
2023/11/17 11:52:28;;;;;;;3.27;2.00;;;;;;;;;;6256196;28;20318;-72
2023/11/17 11:55:32;;;;;;;4.60;1.90;;;;;;;;;;6256105;28;20295;-71
2023/11/17 11:58:40;;;;;;;3.03;1.77;;;;;;;;;;6254782;28;20486;-72
2023/11/17 12:01:48;;;;;;;3.57;1.60;;;;;;;;;;6256038;28;20816;-72
2023/11/17 12:04:53;;;;;;;4.13;1.70;;;;;;;;;;6255800;28;20439;-71
2023/11/17 12:07:58;;;;;;;4.23;1.70;;;;;;;;;;6254628;28;20485;-71
2023/11/17 12:11:10;;;;;;;2.87;1.40;;;;;;;;;;6254976;28;20303;-71
2023/11/17 12:14:16;;;;;;;1.70;1.60;;;;;;;;;;6244164;28;20251;-72
2023/11/17 12:17:26;;;;;;;2.63;1.33;;;;;;;;;;6255456;28;20291;-71
2023/11/17 12:20:30;;;;;;;4.37;1.80;;;;;;;;;;6255129;28;20294;-71
2023/11/17 12:23:48;;;;;;;2.63;1.53;;;;;;;;;;6254946;28;20700;-71
2023/11/17 12:26:53;;;;;;;1.53;1.53;;;;;;;;;;6248312;28;20307;-72
2023/11/17 12:30:00;;;;;;;3.10;1.60;;;;;;;;;;6253606;28;20467;-73
2023/11/17 12:33:07;;;;;;;1.80;1.70;;;;;;;;;;6255349;28;20298;-72
2023/11/17 12:36:15;;;;;;;1.90;1.37;;;;;;;;;;6255073;28;20296;-71
2023/11/17 12:39:20;;;;;;;1.90;1.50;;;;;;;;;;6254509;28;20303;-71
2023/11/17 12:42:24;;;;;;;1.70;1.50;;;;;;;;;;6254938;28;20295;-71
2023/11/17 12:45:28;;;;;;;2.37;1.57;;;;;;;;;;6254448;28;20291;-71
2023/11/17 12:48:35;;;;;;;3.03;1.80;;;;;;;;;;6254538;28;20295;-71
2023/11/17 12:51:40;;;;;;;1.47;1.47;;;;;;;;;;6243261;28;20303;-71
2023/11/17 12:54:44;;;;;;;1.40;1.40;;;;;;;;;;6254514;28;20410;-71
2023/11/17 12:57:47;;;;;;;1.57;1.57;;;;;;;;;;6252791;28;20561;-70
2023/11/17 13:00:51;;;;;;;1.50;1.50;;;;;;;;;;6254564;28;20296;-74
2023/11/17 13:03:58;;;;;;;5.53;1.93;;;;;;;;;;6253966;28;20316;-71
2023/11/17 13:07:02;;;;;;;4.97;1.70;;;;;;;;;;6254470;28;20367;-72
2023/11/17 13:10:10;;;;;;;1.67;1.57;;;;;;;;;;6252006;28;20489;-71
2023/11/17 13:13:15;;;;;;;3.97;1.73;;;;;;;;;;6260808;28;20292;-71
2023/11/17 13:16:19;;;;;;;2.73;1.40;;;;;;;;;;6254234;28;20295;-71
2023/11/17 13:19:25;;;;;;;1.83;1.50;;;;;;;;;;6254105;28;20291;-71
2023/11/17 13:22:29;;;;;;;2.00;1.90;;;;;;;;;;6254656;28;20299;-72
2023/11/17 13:25:34;;;;;;;2.27;1.40;;;;;;;;;;6254180;28;20295;-72
2023/11/17 13:28:39;;;;;;;2.03;1.83;;;;;;;;;;6254265;28;20307;-72
2023/11/17 13:31:43;;;;;;;1.63;1.53;;;;;;;;;;6254978;28;20302;-71
2023/11/17 13:34:55;;;;;;;1.50;1.43;;;;;;;;;;6253894;28;20318;-73
2023/11/17 13:38:00;;;;;;;1.83;1.73;;;;;;;;;;6253620;28;20303;-73
2023/11/17 13:41:07;;;;;;;1.97;1.60;;;;;;;;;;6269121;28;20587;-72
2023/11/17 13:44:12;;;;;;;2.87;1.67;;;;;;;;;;6253777;28;20326;-73
2023/11/17 13:47:31;;;;;;;3.03;1.80;;;;;;;;;;6257497;28;20287;-71
2023/11/17 13:50:36;;;;;;;1.80;1.80;;;;;;;;;;6256358;28;20307;-71
2023/11/17 13:53:40;;;;;;;2.07;1.97;;;;;;;;;;6258048;28;20299;-72
2023/11/17 13:56:47;;;;;;;1.83;1.73;;;;;;;;;;6258617;28;20296;-72
2023/11/17 13:59:51;;;;;;;3.27;1.80;;;;;;;;;;6256484;28;20303;-74
2023/11/17 14:02:57;;;;;;;1.70;1.70;;;;;;;;;;6258262;28;20311;-72
2023/11/17 14:06:03;;;;;;;3.30;1.93;;;;;;;;;;6257792;28;20300;-72
2023/11/17 14:09:07;;;;;;;1.60;1.60;;;;;;;;;;6258461;28;20324;-73
2023/11/17 14:12:10;;;;;;;3.10;1.63;;;;;;;;;;6258466;28;20303;-72
2023/11/17 14:15:16;;;;;;;1.43;1.33;;;;;;;;;;6257244;28;20315;-72
2023/11/17 14:18:20;;;;;;;1.53;1.53;;;;;;;;;;6257646;28;20315;-71
2023/11/17 14:21:25;;;;;;;1.60;1.60;;;;;;;;;;6282816;28;20299;-71
2023/11/17 14:24:29;;;;;;;1.47;1.40;;;;;;;;;;6282677;28;20522;-71
2023/11/17 14:27:33;;;;;;;1.80;1.80;;;;;;;;;;6282860;28;20310;-73
2023/11/17 14:30:37;;;;;;;1.83;1.73;;;;;;;;;;6264472;28;20294;-71
2023/11/17 14:33:41;;;;;;;1.63;1.60;;;;;;;;;;6282435;28;20301;-71
2023/11/17 14:36:47;;;;;;;1.67;1.67;;;;;;;;;;6282231;28;20302;-72
2023/11/17 14:39:50;;;;;;;1.73;1.73;;;;;;;;;;6281479;28;20508;-73
2023/11/17 14:42:58;;;;;;;1.60;1.60;;;;;;;;;;6280312;28;20310;-74
2023/11/17 14:46:03;;;;;;;2.00;1.80;;;;;;;;;;6281360;28;20637;-72
2023/11/17 14:49:07;;;;;;;2.00;1.90;;;;;;;;;;6281616;28;20301;-73
2023/11/17 14:52:12;;;;;;;1.73;1.73;;;;;;;;;;6281619;28;20287;-72
2023/11/17 14:55:21;;;;;;;1.60;1.60;;;;;;;;;;6281347;28;20306;-71
2023/11/17 14:58:25;;;;;;;1.70;1.70;;;;;;;;;;6279162;28;20310;-71
2023/11/17 15:01:30;;;;;;;1.97;1.87;;;;;;;;;;6263701;28;20490;-72
2023/11/17 15:04:34;;;;;;;1.90;1.70;;;;;;;;;;6280758;28;20301;-69
2023/11/17 15:07:39;;;;;;;2.50;1.63;;;;;;;;;;6281849;28;20611;-70
2023/11/17 15:10:45;;;;;;;1.87;1.77;;;;;;;;;;6281095;28;20314;-71
2023/11/17 15:13:50;;;;;;;2.03;1.70;;;;;;;;;;6280675;28;20242;-71
2023/11/17 15:16:54;;;;;;;1.70;1.70;;;;;;;;;;6281160;28;20575;-72
2023/11/17 15:19:59;;;;;;;1.80;1.80;;;;;;;;;;6280683;28;20319;-71
2023/11/17 15:23:05;;;;;;;3.73;1.70;;;;;;;;;;6280837;28;20302;-72
2023/11/17 15:26:11;;;;;;;1.80;1.63;;;;;;;;;;6281193;28;20309;-71
2023/11/17 15:29:15;;;;;;;3.27;2.13;;;;;;;;;;6281202;28;20298;-72
2023/11/17 15:32:24;;;;;;;1.80;1.80;;;;;;;;;;6281631;28;20296;-73
2023/11/17 15:35:30;;;;;;;2.13;2.10;;;;;;;;;;6278843;28;20456;-73
2023/11/17 15:38:35;;;;;;;2.30;2.10;;;;;;;;;;6280787;28;20310;-72
2023/11/17 15:41:39;;;;;;;2.40;1.90;;;;;;;;;;6280481;28;20302;-72
2023/11/17 15:44:44;;;;;;;3.27;2.20;;;;;;;;;;6279163;28;20611;-71
2023/11/17 15:47:48;;;;;;;2.37;2.17;;;;;;;;;;6280516;28;20318;-71
2023/11/17 15:50:52;;;;;;;2.20;2.03;;;;;;;;;;6280206;28;20351;-72
2023/11/17 15:53:57;;;;;;;2.30;2.20;;;;;;;;;;6279853;28;20303;-72
2023/11/17 15:57:01;;;;;;;2.10;2.00;;;;;;;;;;6280605;28;20484;-72
2023/11/17 16:00:06;;;;;;;2.20;2.20;;;;;;;;;;6275978;28;20302;-71
2023/11/17 16:03:12;;;;;;;2.60;2.50;;;;;;;;;;6279631;28;20718;-77
2023/11/17 16:06:17;;;;;;;2.33;2.10;;;;;;;;;;6279728;28;20321;-72
2023/11/17 16:09:28;;;;;;;4.50;2.23;;;;;;;;;;6279167;28;20294;-71
2023/11/17 16:12:33;;;;;;;3.47;2.07;;;;;;;;;;6279748;28;20313;-72
2023/11/17 16:15:42;;;;;;;2.47;2.30;;;;;;;;;;6279046;28;20230;-72
2023/11/17 16:18:46;;;;;;;2.10;2.10;;;;;;;;;;6279024;28;20294;-73
2023/11/17 16:21:50;;;;;;;2.20;2.10;;;;;;;;;;6279653;28;20297;-71
2023/11/17 16:24:57;;;;;;;2.10;2.00;;;;;;;;;;6279050;28;20306;-73
2023/11/17 16:28:05;;;;;;;2.43;2.30;;;;;;;;;;6278988;28;20294;-70
2023/11/17 16:31:11;;;;;;;3.13;2.93;;;;;;;;;;6279769;28;20738;-72
2023/11/17 16:34:18;;;;;;;2.57;2.53;;;;;;;;;;6279216;28;20297;-70
2023/11/17 16:37:23;;;;;;;4.03;2.80;;;;;;;;;;6279760;28;20294;-70
2023/11/17 16:40:28;;;;;;;2.67;2.57;;;;;;;;;;6278872;28;20297;-70
2023/11/17 16:43:33;;;;;;;2.53;2.40;;;;;;;;;;6278682;28;20299;-72
2023/11/17 16:46:37;;;;;;;2.17;2.03;;;;;;;;;;6279097;28;20303;-71
2023/11/17 16:49:41;;;;;;;2.23;2.20;;;;;;;;;;6278738;28;20314;-72
2023/11/17 16:52:45;;;;;;;2.37;2.20;;;;;;;;;;6252167;28;20303;-70
2023/11/17 16:55:50;;;;;;;2.23;2.13;;;;;;;;;;6278362;28;20336;-73
2023/11/17 16:58:55;;;;;;;2.40;2.30;;;;;;;;;;6258835;28;20373;-70
2023/11/17 17:01:58;;;;;;;2.50;2.40;;;;;;;;;;6278914;28;20298;-69
2023/11/17 17:05:02;;;;;;;2.43;2.33;;;;;;;;;;6277986;28;20301;-70
2023/11/17 17:08:06;;;;;;;6.83;5.10;;;;;;;;;;6278498;28;20288;-72
2023/11/17 17:11:14;;;;;;;4.73;2.80;;;;;;;;;;6259774;28;20481;-72
2023/11/17 17:14:18;;;;;;;5.77;3.07;;;;;;;;;;6285533;28;20307;-74
2023/11/17 17:17:25;;;;;;;5.50;3.43;;;;;;;;;;6278800;28;20294;-72
2023/11/17 17:20:29;;;;;;;7.17;2.93;;;;;;;;;;6280115;28;20297;-70
2023/11/17 17:23:33;;;;;;;4.83;2.63;;;;;;;;;;6283447;28;20293;-71
2023/11/17 17:26:39;;;;;;;3.57;3.10;;;;;;;;;;6273869;28;20300;-75
2023/11/17 17:29:44;;;;;;;17.17;3.70;;;;;;;;;;6283067;28;20329;-69
2023/11/17 17:32:49;;;;;;;13.97;3.57;;;;;;;;;;6283368;28;20289;-70
2023/11/17 17:35:52;;;;;;;13.50;4.50;;;;;;;;;;6283047;28;20298;-71
2023/11/17 17:38:56;;;;;;;19.57;3.90;;;;;;;;;;6282924;28;20289;-71
2023/11/17 17:42:03;;;;;;;13.97;3.77;;;;;;;;;;6283477;28;20336;-69
2023/11/17 17:45:09;;;;;;;18.33;5.97;;;;;;;;;;6283166;28;20378;-68
2023/11/17 17:48:13;;;;;;;14.57;4.20;;;;;;;;;;6282862;28;20285;-72
2023/11/17 17:51:17;;;;;;;13.17;4.33;;;;;;;;;;6282837;28;20298;-72
2023/11/17 17:54:21;;;;;;;18.13;5.17;;;;;;;;;;6283200;28;20290;-73
2023/11/17 17:57:26;;;;;;;14.97;5.60;;;;;;;;;;6283211;28;20302;-72
2023/11/17 18:00:31;;;;;;;13.40;4.90;;;;;;;;;;6280907;28;20298;-73
2023/11/17 18:03:35;;;;;;;15.17;5.03;;;;;;;;;;6282195;28;20302;-72
2023/11/17 18:06:39;;;;;;;26.50;5.37;;;;;;;;;;6283187;28;20297;-75
2023/11/17 18:09:42;;;;;;;12.20;4.37;;;;;;;;;;6282287;28;20324;-74
2023/11/17 18:12:50;;;;;;;14.10;4.70;;;;;;;;;;6283005;28;20403;-72
2023/11/17 18:15:54;;;;;;;6.50;4.03;;;;;;;;;;6283125;28;20308;-73
2023/11/17 18:18:58;;;;;;;10.97;4.03;;;;;;;;;;6298503;28;20501;-71
2023/11/17 18:22:02;;;;;;;12.70;4.23;;;;;;;;;;6283352;28;20293;-72
2023/11/17 18:25:08;;;;;;;5.13;3.90;;;;;;;;;;6282165;28;20469;-74
2023/11/17 18:28:13;;;;;;;12.53;4.40;;;;;;;;;;6282513;28;20614;-71
2023/11/17 18:31:18;;;;;;;11.57;3.63;;;;;;;;;;6282707;28;20457;-71